Hanamaulu, HI

3:52 PM HST on August 30, 2015 (GMT -1000)
Lihue | | Change Station
CLOSE
Current Station
Airport
Location: Lihue,
Elevation: 102 ft
Nearby Weather Stations
Active Advisory: High Surf Advisory Active Notice: Record Report

Elev 102 ft 21.98 °N, 159.34 °W | Updated 59 minutes ago

Scattered Clouds
Scattered Clouds
85 °F
Feels Like 95 °F
N
13
Wind Variable Wind from NE

Today
High -- | Low -- °F
--% Chance of Precip.
Yesterday
High -- | Low -- °F
Precip. -- in
6:19 AM 6:55 PM
Full, 97% visible
Pressure 29.90 in
Visibility 10.0 miles
Clouds Scattered Clouds 2100 ft
Heat Index 95 °F
Dew Point 77 °F
Humidity 77%
Rainfall 0.05 in
Snow Depth Not available.
UV 7 out of 12
Pollen Not available.
Air Quality Not available.
Flu Activity Not available.
METAR PHLI 310053Z 05011KT 10SM SCT021 29/25 A2990 RMK AO2 SLP123 T02940250 $
Pressure 29.90 in
Visibility 10.0 miles
Clouds Scattered Clouds 2100 ft
Heat Index 95 °F
Dew Point 77 °F
Humidity 77%
Rainfall 0.05 in
Snow Depth Not available.
UV 7 out of 12
Pollen Not available.
Air Quality Not available.
Flu Activity Not available.
METAR PHLI 310053Z 05011KT 10SM SCT021 29/25 A2990 RMK AO2 SLP123 T02940250 $
Hurricane Ignacio strengthened into a Category 4 hurricane Saturday and its current forecast track takes it just north of The Big Island Monday. While it is not a direct threat to make landfall in Hawaii, a track slightly to the south of its current forecast track could deteriorate weather conditions in the state. See the forecast track

10-Day Weather Forecast

×

Almanac

Astronomy

Aug. 30, 2015 Rise Set
Actual Time
Civil Twilight
Nautical Twilight
Astronomical Twilight
Moon
Length of Visible Light
Length of Day
Tomorrow will be .
, % of the Moon is Illuminated

Today's Extremes

State Highs State Lows

Community

WunderPhotos

Upload Photos

1,851,145 photos uploaded!

WunderBlogs® & News

Nearby

Air Quality

  Air Quality AQ Index Pollutant
Not available.

Snow Depth

Station Depth Elevation

Earthquake Activity

City Distance Mag. Time & Date
Minimum magnitude displayed is 2.5.

Coastal Water Temperatures

Place Temperature

Stations

Nearby Weather Stations

Station Location Temp. Windchill Dew Point Humidity Wind Precip. Elev Updated Type
                   
High Surf Advisory
Statement as of 3:43 PM HST on August 30, 2015

... High surf advisory in effect until 6 PM HST Wednesday...

The National Weather Service in Honolulu has issued a high surf
advisory... which is in effect until 6 PM HST Wednesday.

* Surf... along east facing shores... rising to 6 to 12 feet on
Tuesday.

* Impacts... moderate... expect strong breaking waves... shore
break... and strong longshore and rip currents making
swimming difficult and dangerous.

Precautionary/preparedness actions...

Beachgoers... swimmers... and surfers should heed all advice given
by ocean safety officials and exercise caution. Boaters should
expect recreational surfers and body boarders utilizing Harbor
channels to access surfing areas.